sensor_id;sensor_type;location;lat;lon;timestamp;P1;durP1;ratioP1;P2;durP2;ratioP2
51298;SDS011;37382;45.192;9.790;2022-09-23T00:01:18;20.38;;;9.60;;
51298;SDS011;37382;45.192;9.790;2022-09-23T00:03:46;21.42;;;9.45;;
51298;SDS011;37382;45.192;9.790;2022-09-23T00:06:16;21.10;;;10.30;;
51298;SDS011;37382;45.192;9.790;2022-09-23T00:08:45;21.27;;;9.80;;
51298;SDS011;37382;45.192;9.790;2022-09-23T00:11:17;21.83;;;8.93;;
51298;SDS011;37382;45.192;9.790;2022-09-23T00:13:48;20.10;;;9.73;;
51298;SDS011;37382;45.192;9.790;2022-09-23T00:16:18;17.23;;;8.73;;
51298;SDS011;37382;45.192;9.790;2022-09-23T00:18:51;18.55;;;9.10;;
51298;SDS011;37382;45.192;9.790;2022-09-23T00:21:19;13.93;;;7.55;;
51298;SDS011;37382;45.192;9.790;2022-09-23T00:23:48;20.58;;;7.60;;
51298;SDS011;37382;45.192;9.790;2022-09-23T00:26:16;11.40;;;6.85;;
51298;SDS011;37382;45.192;9.790;2022-09-23T00:28:45;13.10;;;7.05;;
51298;SDS011;37382;45.192;9.790;2022-09-23T00:31:15;14.80;;;6.70;;
51298;SDS011;37382;45.192;9.790;2022-09-23T00:36:13;7.32;;;6.55;;
51298;SDS011;37382;45.192;9.790;2022-09-23T00:38:42;10.57;;;7.00;;
51298;SDS011;37382;45.192;9.790;2022-09-23T00:41:16;14.32;;;6.72;;
51298;SDS011;37382;45.192;9.790;2022-09-23T00:46:21;12.63;;;6.57;;
51298;SDS011;37382;45.192;9.790;2022-09-23T00:48:56;9.15;;;6.80;;
51298;SDS011;37382;45.192;9.790;2022-09-23T00:51:31;10.43;;;6.80;;
51298;SDS011;37382;45.192;9.790;2022-09-23T00:54:03;8.93;;;6.95;;
51298;SDS011;37382;45.192;9.790;2022-09-23T00:56:32;15.68;;;6.88;;
51298;SDS011;37382;45.192;9.790;2022-09-23T00:59:01;13.82;;;6.68;;
51298;SDS011;37382;45.192;9.790;2022-09-23T01:01:29;8.43;;;6.45;;
51298;SDS011;37382;45.192;9.790;2022-09-23T01:03:57;9.82;;;6.88;;
51298;SDS011;37382;45.192;9.790;2022-09-23T01:06:25;9.65;;;6.68;;
51298;SDS011;37382;45.192;9.790;2022-09-23T01:08:52;12.50;;;7.13;;
51298;SDS011;37382;45.192;9.790;2022-09-23T01:14:00;10.35;;;7.55;;
51298;SDS011;37382;45.192;9.790;2022-09-23T01:16:53;18.30;;;7.15;;
51298;SDS011;37382;45.192;9.790;2022-09-23T01:22:09;9.13;;;6.57;;
51298;SDS011;37382;45.192;9.790;2022-09-23T01:30:13;12.43;;;7.03;;
51298;SDS011;37382;45.192;9.790;2022-09-23T01:33:03;9.10;;;6.93;;
51298;SDS011;37382;45.192;9.790;2022-09-23T01:49:55;11.82;;;7.63;;
51298;SDS011;37382;45.192;9.790;2022-09-23T01:55:12;8.68;;;6.88;;
51298;SDS011;37382;45.192;9.790;2022-09-23T01:57:52;9.32;;;7.40;;
51298;SDS011;37382;45.192;9.790;2022-09-23T02:00:24;13.25;;;7.93;;
51298;SDS011;37382;45.192;9.790;2022-09-23T02:03:08;12.10;;;7.25;;
51298;SDS011;37382;45.192;9.790;2022-09-23T02:08:20;12.25;;;7.70;;
51298;SDS011;37382;45.192;9.790;2022-09-23T02:10:54;10.20;;;7.72;;
51298;SDS011;37382;45.192;9.790;2022-09-23T02:16:14;10.63;;;7.95;;
51298;SDS011;37382;45.192;9.790;2022-09-23T02:18:57;11.02;;;7.78;;
51298;SDS011;37382;45.192;9.790;2022-09-23T02:21:34;11.43;;;7.70;;
51298;SDS011;37382;45.192;9.790;2022-09-23T02:24:30;15.55;;;7.85;;
51298;SDS011;37382;45.192;9.790;2022-09-23T02:27:02;8.68;;;7.20;;
51298;SDS011;37382;45.192;9.790;2022-09-23T02:29:48;13.52;;;7.82;;
51298;SDS011;37382;45.192;9.790;2022-09-23T02:40:40;9.25;;;7.22;;
51298;SDS011;37382;45.192;9.790;2022-09-23T02:43:31;12.25;;;7.28;;
51298;SDS011;37382;45.192;9.790;2022-09-23T02:46:05;10.98;;;7.50;;
51298;SDS011;37382;45.192;9.790;2022-09-23T02:48:35;12.45;;;7.88;;
51298;SDS011;37382;45.192;9.790;2022-09-23T02:51:08;11.55;;;7.38;;
51298;SDS011;37382;45.192;9.790;2022-09-23T02:53:36;10.95;;;7.65;;
51298;SDS011;37382;45.192;9.790;2022-09-23T02:56:14;8.15;;;7.22;;
51298;SDS011;37382;45.192;9.790;2022-09-23T02:58:46;12.60;;;7.85;;
51298;SDS011;37382;45.192;9.790;2022-09-23T03:06:31;8.07;;;7.30;;
51298;SDS011;37382;45.192;9.790;2022-09-23T03:15:29;10.07;;;7.55;;
51298;SDS011;37382;45.192;9.790;2022-09-23T03:20:33;10.00;;;7.80;;
51298;SDS011;37382;45.192;9.790;2022-09-23T03:23:05;10.43;;;8.18;;
51298;SDS011;37382;45.192;9.790;2022-09-23T03:25:35;12.77;;;7.35;;
51298;SDS011;37382;45.192;9.790;2022-09-23T03:28:06;27.15;;;8.05;;
51298;SDS011;37382;45.192;9.790;2022-09-23T03:30:35;8.68;;;7.72;;
51298;SDS011;37382;45.192;9.790;2022-09-23T03:33:04;11.23;;;7.82;;
51298;SDS011;37382;45.192;9.790;2022-09-23T03:35:34;12.18;;;7.90;;
51298;SDS011;37382;45.192;9.790;2022-09-23T03:38:34;10.05;;;7.65;;
51298;SDS011;37382;45.192;9.790;2022-09-23T03:41:08;13.15;;;8.48;;
51298;SDS011;37382;45.192;9.790;2022-09-23T03:43:43;9.95;;;8.05;;
51298;SDS011;37382;45.192;9.790;2022-09-23T03:46:11;11.30;;;7.75;;
51298;SDS011;37382;45.192;9.790;2022-09-23T03:48:44;8.77;;;7.93;;
51298;SDS011;37382;45.192;9.790;2022-09-23T03:51:21;11.43;;;8.25;;
51298;SDS011;37382;45.192;9.790;2022-09-23T03:53:49;10.50;;;8.15;;
51298;SDS011;37382;45.192;9.790;2022-09-23T03:56:17;9.43;;;8.50;;
51298;SDS011;37382;45.192;9.790;2022-09-23T03:58:44;15.88;;;8.73;;
51298;SDS011;37382;45.192;9.790;2022-09-23T04:01:13;11.77;;;8.20;;
51298;SDS011;37382;45.192;9.790;2022-09-23T04:03:45;14.27;;;8.15;;
51298;SDS011;37382;45.192;9.790;2022-09-23T04:06:13;13.45;;;8.30;;
51298;SDS011;37382;45.192;9.790;2022-09-23T04:08:41;16.27;;;8.68;;
51298;SDS011;37382;45.192;9.790;2022-09-23T04:11:08;9.77;;;8.70;;
51298;SDS011;37382;45.192;9.790;2022-09-23T04:13:36;12.13;;;8.85;;
51298;SDS011;37382;45.192;9.790;2022-09-23T04:16:03;9.63;;;8.63;;
51298;SDS011;37382;45.192;9.790;2022-09-23T04:18:31;14.30;;;7.50;;
51298;SDS011;37382;45.192;9.790;2022-09-23T04:20:58;15.55;;;8.32;;
51298;SDS011;37382;45.192;9.790;2022-09-23T04:23:26;9.55;;;8.43;;
51298;SDS011;37382;45.192;9.790;2022-09-23T04:25:53;9.57;;;8.55;;
51298;SDS011;37382;45.192;9.790;2022-09-23T04:28:21;9.25;;;8.35;;
51298;SDS011;37382;45.192;9.790;2022-09-23T04:30:49;10.45;;;8.70;;
51298;SDS011;37382;45.192;9.790;2022-09-23T04:33:17;14.88;;;9.20;;
51298;SDS011;37382;45.192;9.790;2022-09-23T04:35:48;15.75;;;9.02;;
51298;SDS011;37382;45.192;9.790;2022-09-23T04:38:18;17.15;;;8.68;;
51298;SDS011;37382;45.192;9.790;2022-09-23T04:40:46;18.35;;;9.13;;
51298;SDS011;37382;45.192;9.790;2022-09-23T04:43:14;21.05;;;9.25;;
51298;SDS011;37382;45.192;9.790;2022-09-23T04:45:42;28.98;;;9.30;;
51298;SDS011;37382;45.192;9.790;2022-09-23T04:48:10;16.23;;;9.20;;
51298;SDS011;37382;45.192;9.790;2022-09-23T04:50:39;15.73;;;8.90;;
51298;SDS011;37382;45.192;9.790;2022-09-23T04:53:07;12.45;;;9.30;;
51298;SDS011;37382;45.192;9.790;2022-09-23T04:55:34;15.18;;;9.20;;
51298;SDS011;37382;45.192;9.790;2022-09-23T04:58:02;13.20;;;9.88;;
51298;SDS011;37382;45.192;9.790;2022-09-23T05:00:30;12.27;;;9.68;;
51298;SDS011;37382;45.192;9.790;2022-09-23T05:02:57;18.58;;;10.48;;
51298;SDS011;37382;45.192;9.790;2022-09-23T05:05:25;15.60;;;9.18;;
51298;SDS011;37382;45.192;9.790;2022-09-23T05:07:55;22.02;;;10.90;;
51298;SDS011;37382;45.192;9.790;2022-09-23T05:10:23;12.35;;;9.50;;
51298;SDS011;37382;45.192;9.790;2022-09-23T05:12:51;12.32;;;9.75;;
51298;SDS011;37382;45.192;9.790;2022-09-23T05:15:23;20.33;;;10.43;;
51298;SDS011;37382;45.192;9.790;2022-09-23T05:17:51;16.35;;;9.50;;
51298;SDS011;37382;45.192;9.790;2022-09-23T05:20:18;14.18;;;9.57;;
51298;SDS011;37382;45.192;9.790;2022-09-23T05:22:45;12.15;;;9.43;;
51298;SDS011;37382;45.192;9.790;2022-09-23T05:25:12;17.08;;;9.25;;
51298;SDS011;37382;45.192;9.790;2022-09-23T05:27:40;9.88;;;8.93;;
51298;SDS011;37382;45.192;9.790;2022-09-23T05:30:08;16.23;;;9.93;;
51298;SDS011;37382;45.192;9.790;2022-09-23T05:32:36;24.50;;;9.57;;
51298;SDS011;37382;45.192;9.790;2022-09-23T05:35:04;35.47;;;11.15;;
51298;SDS011;37382;45.192;9.790;2022-09-23T05:37:32;25.58;;;10.02;;
51298;SDS011;37382;45.192;9.790;2022-09-23T05:39:59;23.55;;;9.35;;
51298;SDS011;37382;45.192;9.790;2022-09-23T05:42:27;29.90;;;10.57;;
51298;SDS011;37382;45.192;9.790;2022-09-23T05:44:55;21.95;;;9.95;;
51298;SDS011;37382;45.192;9.790;2022-09-23T05:47:22;19.30;;;9.88;;
51298;SDS011;37382;45.192;9.790;2022-09-23T05:49:49;12.95;;;9.20;;
51298;SDS011;37382;45.192;9.790;2022-09-23T05:52:26;26.55;;;9.77;;
51298;SDS011;37382;45.192;9.790;2022-09-23T05:54:54;17.88;;;10.07;;
51298;SDS011;37382;45.192;9.790;2022-09-23T05:57:21;16.38;;;9.20;;
51298;SDS011;37382;45.192;9.790;2022-09-23T05:59:49;19.85;;;10.85;;
51298;SDS011;37382;45.192;9.790;2022-09-23T06:02:16;17.98;;;10.07;;
51298;SDS011;37382;45.192;9.790;2022-09-23T06:04:44;30.73;;;10.23;;
51298;SDS011;37382;45.192;9.790;2022-09-23T06:07:11;21.73;;;11.35;;
51298;SDS011;37382;45.192;9.790;2022-09-23T06:09:39;15.50;;;10.45;;
51298;SDS011;37382;45.192;9.790;2022-09-23T06:12:08;26.52;;;11.85;;
51298;SDS011;37382;45.192;9.790;2022-09-23T06:14:35;18.17;;;9.90;;
51298;SDS011;37382;45.192;9.790;2022-09-23T06:17:03;22.50;;;10.77;;
51298;SDS011;37382;45.192;9.790;2022-09-23T06:19:31;18.23;;;10.85;;
51298;SDS011;37382;45.192;9.790;2022-09-23T06:21:58;13.88;;;10.18;;
51298;SDS011;37382;45.192;9.790;2022-09-23T06:24:26;13.73;;;9.82;;
51298;SDS011;37382;45.192;9.790;2022-09-23T06:26:58;19.73;;;11.43;;
51298;SDS011;37382;45.192;9.790;2022-09-23T06:29:27;14.68;;;11.27;;
51298;SDS011;37382;45.192;9.790;2022-09-23T06:31:56;13.80;;;10.75;;
51298;SDS011;37382;45.192;9.790;2022-09-23T06:34:25;18.05;;;10.52;;
51298;SDS011;37382;45.192;9.790;2022-09-23T06:36:53;12.98;;;9.73;;
51298;SDS011;37382;45.192;9.790;2022-09-23T06:39:21;13.32;;;9.75;;
51298;SDS011;37382;45.192;9.790;2022-09-23T06:41:49;21.35;;;9.93;;
51298;SDS011;37382;45.192;9.790;2022-09-23T06:44:16;22.55;;;10.70;;
51298;SDS011;37382;45.192;9.790;2022-09-23T06:46:43;26.95;;;10.60;;
51298;SDS011;37382;45.192;9.790;2022-09-23T06:49:11;21.42;;;10.27;;
51298;SDS011;37382;45.192;9.790;2022-09-23T06:51:39;22.17;;;11.02;;
51298;SDS011;37382;45.192;9.790;2022-09-23T06:54:08;30.08;;;12.95;;
51298;SDS011;37382;45.192;9.790;2022-09-23T06:56:37;25.15;;;12.30;;
51298;SDS011;37382;45.192;9.790;2022-09-23T06:59:07;17.05;;;10.18;;
51298;SDS011;37382;45.192;9.790;2022-09-23T07:01:36;31.77;;;11.17;;
51298;SDS011;37382;45.192;9.790;2022-09-23T07:04:04;15.13;;;10.38;;
51298;SDS011;37382;45.192;9.790;2022-09-23T07:06:34;17.27;;;10.23;;
51298;SDS011;37382;45.192;9.790;2022-09-23T07:09:01;24.08;;;10.77;;
51298;SDS011;37382;45.192;9.790;2022-09-23T07:11:30;15.80;;;10.60;;
51298;SDS011;37382;45.192;9.790;2022-09-23T07:13:57;18.88;;;11.18;;
51298;SDS011;37382;45.192;9.790;2022-09-23T07:16:25;16.55;;;10.90;;
51298;SDS011;37382;45.192;9.790;2022-09-23T07:18:53;17.38;;;11.40;;
51298;SDS011;37382;45.192;9.790;2022-09-23T07:21:21;13.93;;;11.23;;
51298;SDS011;37382;45.192;9.790;2022-09-23T07:23:48;13.70;;;11.98;;
51298;SDS011;37382;45.192;9.790;2022-09-23T07:26:18;19.15;;;12.45;;
51298;SDS011;37382;45.192;9.790;2022-09-23T07:28:46;15.88;;;11.05;;
51298;SDS011;37382;45.192;9.790;2022-09-23T07:31:15;13.93;;;11.18;;
51298;SDS011;37382;45.192;9.790;2022-09-23T07:34:00;14.55;;;11.02;;
51298;SDS011;37382;45.192;9.790;2022-09-23T07:36:28;20.67;;;12.70;;
51298;SDS011;37382;45.192;9.790;2022-09-23T07:38:58;20.98;;;11.38;;
51298;SDS011;37382;45.192;9.790;2022-09-23T07:41:29;15.35;;;11.77;;
51298;SDS011;37382;45.192;9.790;2022-09-23T07:43:57;16.73;;;11.52;;
51298;SDS011;37382;45.192;9.790;2022-09-23T07:46:27;17.10;;;11.57;;
51298;SDS011;37382;45.192;9.790;2022-09-23T07:48:57;20.40;;;11.73;;
51298;SDS011;37382;45.192;9.790;2022-09-23T07:51:27;16.73;;;10.88;;
51298;SDS011;37382;45.192;9.790;2022-09-23T07:54:03;19.55;;;10.82;;
51298;SDS011;37382;45.192;9.790;2022-09-23T07:56:34;16.05;;;10.93;;
51298;SDS011;37382;45.192;9.790;2022-09-23T07:59:03;18.90;;;11.25;;
51298;SDS011;37382;45.192;9.790;2022-09-23T08:01:32;18.08;;;9.82;;
51298;SDS011;37382;45.192;9.790;2022-09-23T08:04:03;23.65;;;11.32;;
51298;SDS011;37382;45.192;9.790;2022-09-23T08:06:33;20.45;;;11.27;;
51298;SDS011;37382;45.192;9.790;2022-09-23T08:09:01;15.57;;;10.27;;
51298;SDS011;37382;45.192;9.790;2022-09-23T08:11:29;22.15;;;10.05;;
51298;SDS011;37382;45.192;9.790;2022-09-23T08:13:57;12.75;;;10.18;;
51298;SDS011;37382;45.192;9.790;2022-09-23T08:16:25;18.58;;;9.68;;
51298;SDS011;37382;45.192;9.790;2022-09-23T08:18:53;15.10;;;10.65;;
51298;SDS011;37382;45.192;9.790;2022-09-23T08:21:20;15.75;;;10.52;;
51298;SDS011;37382;45.192;9.790;2022-09-23T08:23:49;16.45;;;10.75;;
51298;SDS011;37382;45.192;9.790;2022-09-23T08:26:17;15.50;;;8.93;;
51298;SDS011;37382;45.192;9.790;2022-09-23T08:28:48;12.55;;;9.63;;
51298;SDS011;37382;45.192;9.790;2022-09-23T08:31:20;17.65;;;9.18;;
51298;SDS011;37382;45.192;9.790;2022-09-23T08:33:55;12.38;;;8.48;;
51298;SDS011;37382;45.192;9.790;2022-09-23T08:36:24;11.38;;;8.88;;
51298;SDS011;37382;45.192;9.790;2022-09-23T08:38:53;16.65;;;9.00;;
51298;SDS011;37382;45.192;9.790;2022-09-23T08:44:39;13.43;;;8.82;;
51298;SDS011;37382;45.192;9.790;2022-09-23T08:50:13;13.18;;;7.82;;
51298;SDS011;37382;45.192;9.790;2022-09-23T08:52:58;11.90;;;7.68;;
51298;SDS011;37382;45.192;9.790;2022-09-23T08:55:31;16.70;;;7.57;;
51298;SDS011;37382;45.192;9.790;2022-09-23T08:58:23;15.35;;;6.90;;
51298;SDS011;37382;45.192;9.790;2022-09-23T09:04:12;11.45;;;6.60;;
51298;SDS011;37382;45.192;9.790;2022-09-23T09:07:01;11.40;;;6.18;;
51298;SDS011;37382;45.192;9.790;2022-09-23T09:10:16;14.15;;;7.07;;
51298;SDS011;37382;45.192;9.790;2022-09-23T09:12:48;9.93;;;5.80;;
51298;SDS011;37382;45.192;9.790;2022-09-23T09:15:21;12.73;;;6.47;;
51298;SDS011;37382;45.192;9.790;2022-09-23T09:18:06;15.65;;;5.57;;
51298;SDS011;37382;45.192;9.790;2022-09-23T09:26:24;13.70;;;5.93;;
51298;SDS011;37382;45.192;9.790;2022-09-23T09:31:47;7.43;;;5.10;;
51298;SDS011;37382;45.192;9.790;2022-09-23T09:39:35;7.85;;;4.93;;
51298;SDS011;37382;45.192;9.790;2022-09-23T09:42:03;9.35;;;4.88;;
51298;SDS011;37382;45.192;9.790;2022-09-23T09:50:07;9.93;;;5.78;;
51298;SDS011;37382;45.192;9.790;2022-09-23T09:52:39;8.98;;;5.22;;
51298;SDS011;37382;45.192;9.790;2022-09-23T10:02:56;10.23;;;4.75;;
51298;SDS011;37382;45.192;9.790;2022-09-23T10:05:33;11.38;;;4.55;;
51298;SDS011;37382;45.192;9.790;2022-09-23T10:08:32;8.88;;;4.70;;
51298;SDS011;37382;45.192;9.790;2022-09-23T10:13:29;8.43;;;4.82;;
51298;SDS011;37382;45.192;9.790;2022-09-23T10:15:58;7.95;;;5.40;;
51298;SDS011;37382;45.192;9.790;2022-09-23T10:21:16;13.10;;;6.07;;
51298;SDS011;37382;45.192;9.790;2022-09-23T10:23:54;9.90;;;5.97;;
51298;SDS011;37382;45.192;9.790;2022-09-23T10:26:25;8.77;;;4.13;;
51298;SDS011;37382;45.192;9.790;2022-09-23T10:29:33;9.38;;;4.10;;
51298;SDS011;37382;45.192;9.790;2022-09-23T10:32:15;7.78;;;4.07;;
51298;SDS011;37382;45.192;9.790;2022-09-23T10:47:11;6.10;;;4.32;;
51298;SDS011;37382;45.192;9.790;2022-09-23T10:54:57;4.93;;;3.60;;
51298;SDS011;37382;45.192;9.790;2022-09-23T11:17:06;13.68;;;4.25;;
51298;SDS011;37382;45.192;9.790;2022-09-23T11:25:17;10.75;;;4.07;;
51298;SDS011;37382;45.192;9.790;2022-09-23T11:28:12;4.30;;;3.35;;
51298;SDS011;37382;45.192;9.790;2022-09-23T11:31:16;5.78;;;3.50;;
51298;SDS011;37382;45.192;9.790;2022-09-23T11:36:40;5.43;;;3.80;;
51298;SDS011;37382;45.192;9.790;2022-09-23T11:39:16;4.53;;;3.30;;
51298;SDS011;37382;45.192;9.790;2022-09-23T11:41:51;4.45;;;3.42;;
51298;SDS011;37382;45.192;9.790;2022-09-23T11:44:25;4.45;;;3.30;;
51298;SDS011;37382;45.192;9.790;2022-09-23T11:47:05;8.40;;;4.10;;
51298;SDS011;37382;45.192;9.790;2022-09-23T11:52:12;6.68;;;4.07;;
51298;SDS011;37382;45.192;9.790;2022-09-23T11:57:26;6.20;;;3.38;;
51298;SDS011;37382;45.192;9.790;2022-09-23T12:00:15;7.22;;;3.97;;
51298;SDS011;37382;45.192;9.790;2022-09-23T12:06:02;6.80;;;3.58;;
51298;SDS011;37382;45.192;9.790;2022-09-23T12:08:35;5.65;;;4.03;;
51298;SDS011;37382;45.192;9.790;2022-09-23T12:11:05;5.90;;;4.68;;
51298;SDS011;37382;45.192;9.790;2022-09-23T12:13:51;4.80;;;4.15;;
51298;SDS011;37382;45.192;9.790;2022-09-23T12:19:52;6.47;;;4.05;;
51298;SDS011;37382;45.192;9.790;2022-09-23T12:25:51;13.57;;;4.60;;
51298;SDS011;37382;45.192;9.790;2022-09-23T12:28:36;7.82;;;4.70;;
51298;SDS011;37382;45.192;9.790;2022-09-23T12:31:17;8.82;;;3.85;;
51298;SDS011;37382;45.192;9.790;2022-09-23T12:33:52;5.47;;;4.93;;
51298;SDS011;37382;45.192;9.790;2022-09-23T12:36:38;6.43;;;5.18;;
51298;SDS011;37382;45.192;9.790;2022-09-23T12:41:46;7.05;;;4.25;;
51298;SDS011;37382;45.192;9.790;2022-09-23T12:49:41;11.23;;;5.63;;
51298;SDS011;37382;45.192;9.790;2022-09-23T12:52:11;8.32;;;5.55;;
51298;SDS011;37382;45.192;9.790;2022-09-23T12:54:43;9.00;;;5.55;;
51298;SDS011;37382;45.192;9.790;2022-09-23T13:00:21;7.97;;;4.57;;
51298;SDS011;37382;45.192;9.790;2022-09-23T13:05:45;7.53;;;3.70;;
51298;SDS011;37382;45.192;9.790;2022-09-23T13:08:37;7.25;;;4.95;;
51298;SDS011;37382;45.192;9.790;2022-09-23T13:11:23;9.80;;;5.90;;
51298;SDS011;37382;45.192;9.790;2022-09-23T13:13:55;9.25;;;4.90;;
51298;SDS011;37382;45.192;9.790;2022-09-23T13:16:30;58.13;;;5.63;;
51298;SDS011;37382;45.192;9.790;2022-09-23T13:19:02;13.95;;;5.03;;
51298;SDS011;37382;45.192;9.790;2022-09-23T13:26:55;10.80;;;5.18;;
51298;SDS011;37382;45.192;9.790;2022-09-23T13:29:42;14.05;;;4.55;;
51298;SDS011;37382;45.192;9.790;2022-09-23T13:32:18;12.38;;;6.28;;
51298;SDS011;37382;45.192;9.790;2022-09-23T13:34:58;15.93;;;5.95;;
51298;SDS011;37382;45.192;9.790;2022-09-23T13:37:29;10.52;;;5.78;;
51298;SDS011;37382;45.192;9.790;2022-09-23T13:40:09;10.00;;;4.85;;
51298;SDS011;37382;45.192;9.790;2022-09-23T13:42:49;9.75;;;5.32;;
51298;SDS011;37382;45.192;9.790;2022-09-23T13:45:21;8.73;;;5.28;;
51298;SDS011;37382;45.192;9.790;2022-09-23T13:47:50;5.78;;;3.70;;
51298;SDS011;37382;45.192;9.790;2022-09-23T13:50:21;5.65;;;4.93;;
51298;SDS011;37382;45.192;9.790;2022-09-23T13:52:54;16.35;;;6.18;;
51298;SDS011;37382;45.192;9.790;2022-09-23T13:55:26;7.93;;;5.22;;
51298;SDS011;37382;45.192;9.790;2022-09-23T13:58:01;9.45;;;5.57;;
51298;SDS011;37382;45.192;9.790;2022-09-23T14:00:31;10.10;;;5.80;;
51298;SDS011;37382;45.192;9.790;2022-09-23T14:03:02;5.75;;;5.13;;
51298;SDS011;37382;45.192;9.790;2022-09-23T14:05:43;7.88;;;3.90;;
51298;SDS011;37382;45.192;9.790;2022-09-23T14:08:12;20.80;;;4.85;;
51298;SDS011;37382;45.192;9.790;2022-09-23T14:10:40;9.25;;;4.20;;
51298;SDS011;37382;45.192;9.790;2022-09-23T14:13:16;10.98;;;5.30;;
51298;SDS011;37382;45.192;9.790;2022-09-23T14:15:53;10.70;;;4.25;;
51298;SDS011;37382;45.192;9.790;2022-09-23T14:21:02;5.80;;;4.43;;
51298;SDS011;37382;45.192;9.790;2022-09-23T14:23:30;20.85;;;5.45;;
51298;SDS011;37382;45.192;9.790;2022-09-23T14:26:00;12.65;;;4.40;;
51298;SDS011;37382;45.192;9.790;2022-09-23T14:28:29;7.07;;;4.28;;
51298;SDS011;37382;45.192;9.790;2022-09-23T14:30:58;10.18;;;4.88;;
51298;SDS011;37382;45.192;9.790;2022-09-23T14:33:29;7.47;;;4.47;;
51298;SDS011;37382;45.192;9.790;2022-09-23T14:36:03;13.65;;;3.33;;
51298;SDS011;37382;45.192;9.790;2022-09-23T14:38:34;7.38;;;4.18;;
51298;SDS011;37382;45.192;9.790;2022-09-23T14:41:21;7.38;;;3.53;;
51298;SDS011;37382;45.192;9.790;2022-09-23T14:43:55;4.88;;;4.20;;
51298;SDS011;37382;45.192;9.790;2022-09-23T14:46:25;11.00;;;4.28;;
51298;SDS011;37382;45.192;9.790;2022-09-23T14:51:42;11.40;;;4.15;;
51298;SDS011;37382;45.192;9.790;2022-09-23T14:59:51;5.63;;;4.00;;
51298;SDS011;37382;45.192;9.790;2022-09-23T15:07:49;14.38;;;4.22;;
51298;SDS011;37382;45.192;9.790;2022-09-23T15:10:21;7.72;;;4.00;;
51298;SDS011;37382;45.192;9.790;2022-09-23T15:12:53;4.82;;;3.80;;
51298;SDS011;37382;45.192;9.790;2022-09-23T15:15:29;5.68;;;3.50;;
51298;SDS011;37382;45.192;9.790;2022-09-23T15:18:10;14.25;;;3.70;;
51298;SDS011;37382;45.192;9.790;2022-09-23T15:20:52;5.70;;;3.72;;
51298;SDS011;37382;45.192;9.790;2022-09-23T15:23:32;8.23;;;3.97;;
51298;SDS011;37382;45.192;9.790;2022-09-23T15:26:13;10.07;;;4.35;;
51298;SDS011;37382;45.192;9.790;2022-09-23T15:28:43;6.55;;;5.38;;
51298;SDS011;37382;45.192;9.790;2022-09-23T15:31:11;7.60;;;4.63;;
51298;SDS011;37382;45.192;9.790;2022-09-23T15:33:39;7.43;;;5.13;;
51298;SDS011;37382;45.192;9.790;2022-09-23T15:36:09;16.02;;;5.40;;
51298;SDS011;37382;45.192;9.790;2022-09-23T15:38:43;12.95;;;4.32;;
51298;SDS011;37382;45.192;9.790;2022-09-23T15:41:12;13.05;;;6.60;;
51298;SDS011;37382;45.192;9.790;2022-09-23T15:43:40;14.07;;;6.95;;
51298;SDS011;37382;45.192;9.790;2022-09-23T15:46:18;8.95;;;7.28;;
51298;SDS011;37382;45.192;9.790;2022-09-23T15:48:53;9.25;;;3.80;;
51298;SDS011;37382;45.192;9.790;2022-09-23T15:51:25;16.17;;;7.55;;
51298;SDS011;37382;45.192;9.790;2022-09-23T15:53:54;6.18;;;5.20;;
51298;SDS011;37382;45.192;9.790;2022-09-23T15:56:22;10.30;;;6.35;;
51298;SDS011;37382;45.192;9.790;2022-09-23T15:58:52;10.35;;;6.93;;
51298;SDS011;37382;45.192;9.790;2022-09-23T16:01:26;16.38;;;7.55;;
51298;SDS011;37382;45.192;9.790;2022-09-23T16:03:57;12.48;;;6.57;;
51298;SDS011;37382;45.192;9.790;2022-09-23T16:06:27;8.50;;;7.03;;
51298;SDS011;37382;45.192;9.790;2022-09-23T16:08:54;9.30;;;6.30;;
51298;SDS011;37382;45.192;9.790;2022-09-23T16:11:23;10.80;;;6.60;;
51298;SDS011;37382;45.192;9.790;2022-09-23T16:13:53;12.68;;;7.45;;
51298;SDS011;37382;45.192;9.790;2022-09-23T16:16:22;16.83;;;6.60;;
51298;SDS011;37382;45.192;9.790;2022-09-23T16:18:50;12.25;;;7.15;;
51298;SDS011;37382;45.192;9.790;2022-09-23T16:21:19;11.77;;;7.20;;
51298;SDS011;37382;45.192;9.790;2022-09-23T16:23:49;13.60;;;6.82;;
51298;SDS011;37382;45.192;9.790;2022-09-23T16:28:47;20.40;;;7.13;;
51298;SDS011;37382;45.192;9.790;2022-09-23T16:31:16;21.50;;;7.20;;
51298;SDS011;37382;45.192;9.790;2022-09-23T16:33:45;22.45;;;8.52;;
51298;SDS011;37382;45.192;9.790;2022-09-23T16:36:24;19.00;;;9.05;;
51298;SDS011;37382;45.192;9.790;2022-09-23T16:38:54;17.33;;;8.10;;
51298;SDS011;37382;45.192;9.790;2022-09-23T16:41:22;26.05;;;9.50;;
51298;SDS011;37382;45.192;9.790;2022-09-23T16:43:50;20.25;;;9.60;;
51298;SDS011;37382;45.192;9.790;2022-09-23T16:46:20;18.67;;;9.15;;
51298;SDS011;37382;45.192;9.790;2022-09-23T16:48:48;15.20;;;8.88;;
51298;SDS011;37382;45.192;9.790;2022-09-23T16:51:20;26.25;;;9.50;;
51298;SDS011;37382;45.192;9.790;2022-09-23T16:53:50;15.25;;;9.75;;
51298;SDS011;37382;45.192;9.790;2022-09-23T16:56:19;30.17;;;10.20;;
51298;SDS011;37382;45.192;9.790;2022-09-23T16:58:54;20.95;;;10.20;;
51298;SDS011;37382;45.192;9.790;2022-09-23T17:01:24;26.20;;;10.60;;
51298;SDS011;37382;45.192;9.790;2022-09-23T17:04:12;22.63;;;10.68;;
51298;SDS011;37382;45.192;9.790;2022-09-23T17:06:42;22.63;;;9.95;;
51298;SDS011;37382;45.192;9.790;2022-09-23T17:09:11;23.02;;;10.10;;
51298;SDS011;37382;45.192;9.790;2022-09-23T17:11:39;25.15;;;10.93;;
51298;SDS011;37382;45.192;9.790;2022-09-23T17:14:07;23.88;;;10.82;;
51298;SDS011;37382;45.192;9.790;2022-09-23T17:16:36;24.98;;;11.18;;
51298;SDS011;37382;45.192;9.790;2022-09-23T17:19:07;18.60;;;10.95;;
51298;SDS011;37382;45.192;9.790;2022-09-23T17:21:36;20.30;;;11.15;;
51298;SDS011;37382;45.192;9.790;2022-09-23T17:24:04;30.45;;;11.48;;
51298;SDS011;37382;45.192;9.790;2022-09-23T17:26:33;29.27;;;10.93;;
51298;SDS011;37382;45.192;9.790;2022-09-23T17:29:00;18.77;;;11.38;;
51298;SDS011;37382;45.192;9.790;2022-09-23T17:31:28;16.55;;;10.63;;
51298;SDS011;37382;45.192;9.790;2022-09-23T17:33:56;20.73;;;12.25;;
51298;SDS011;37382;45.192;9.790;2022-09-23T17:36:24;23.58;;;11.15;;
51298;SDS011;37382;45.192;9.790;2022-09-23T17:38:53;23.65;;;11.80;;
51298;SDS011;37382;45.192;9.790;2022-09-23T17:41:22;24.80;;;11.07;;
51298;SDS011;37382;45.192;9.790;2022-09-23T17:43:53;17.15;;;11.50;;
51298;SDS011;37382;45.192;9.790;2022-09-23T17:46:23;22.45;;;11.18;;
51298;SDS011;37382;45.192;9.790;2022-09-23T17:48:50;16.13;;;10.80;;
51298;SDS011;37382;45.192;9.790;2022-09-23T17:51:21;17.50;;;11.88;;
51298;SDS011;37382;45.192;9.790;2022-09-23T17:53:50;16.10;;;11.18;;
51298;SDS011;37382;45.192;9.790;2022-09-23T17:56:18;21.27;;;10.65;;
51298;SDS011;37382;45.192;9.790;2022-09-23T17:58:58;16.33;;;10.95;;
51298;SDS011;37382;45.192;9.790;2022-09-23T18:01:27;18.80;;;11.33;;
51298;SDS011;37382;45.192;9.790;2022-09-23T18:03:56;19.73;;;10.52;;
51298;SDS011;37382;45.192;9.790;2022-09-23T18:06:28;30.35;;;10.93;;
51298;SDS011;37382;45.192;9.790;2022-09-23T18:08:58;24.63;;;11.32;;
51298;SDS011;37382;45.192;9.790;2022-09-23T18:11:37;27.65;;;11.57;;
51298;SDS011;37382;45.192;9.790;2022-09-23T18:14:11;20.90;;;11.02;;
51298;SDS011;37382;45.192;9.790;2022-09-23T18:16:41;24.75;;;10.95;;
51298;SDS011;37382;45.192;9.790;2022-09-23T18:19:11;26.60;;;11.57;;
51298;SDS011;37382;45.192;9.790;2022-09-23T18:21:41;22.95;;;11.68;;
51298;SDS011;37382;45.192;9.790;2022-09-23T18:24:11;27.15;;;12.10;;